Main page
METAR-TAF:

METAR-TAF

Airports :

Brive-la-Gaillarde, France

Brive–Dordogne Valley Airport

latitude: 45-02-28N, longitude: 001-28-59E, elevation: 311 m

Current weather observation

The report was made 27 minutes ago, at 20:00 UTC
Wind 6 kt from the North/Northwest
Temperature 3°C
Humidity 81%
Pressure 1027 hPa
Visibility 10 km or more
no clouds below 1500 m and no cumulonimbus

METAR: LFSL 182000Z AUTO 34006KT CAVOK 03/00 Q1027 NOSIG

Time: 21:27 (20:27 UTC)

Forecast

The report was made 3 hours and 27 minutes ago, at 17:00 UTC
Forecast valid from 18 at 18 UTC to 19 at 03 UTC
Wind 8 kt from the North
Visibility 10 km or more
Few clouds at a height of 2500 ft
Becoming
from 18 at 19 UTC to 18 at 21 UTC
Visibility 10 km or more
no clouds below 1500 m and no cumulonimbus

TAF: LFSL 181700Z 1818/1903 01008KT 9999 FEW025 BECMG 1819/1821 CAVOK

Weather observations and forecasts of more than 4000 airports (METAR and TAF reports).

The available stations are represented by yellow and red dots on the map.

Hover mouse over dot to see the name of the station.

Then click to see weather observations and forecasts.

To change the map : click on the green buttons with a black cross to zoom in, on the green button with a dash to zoom out, or on the green arrows for adjacent maps.


METAR-TAF: